sensor_id;sensor_type;location;lat;lon;timestamp;P1;durP1;ratioP1;P2;durP2;ratioP2
11548;SDS011;61444;59.472;18.306;2023-03-21T00:01:50;16.07;;;3.07;;
11548;SDS011;61444;59.472;18.306;2023-03-21T00:03:59;13.33;;;2.70;;
11548;SDS011;61444;59.472;18.306;2023-03-21T00:06:11;26.50;;;3.23;;
11548;SDS011;61444;59.472;18.306;2023-03-21T00:08:21;12.60;;;2.37;;
11548;SDS011;61444;59.472;18.306;2023-03-21T00:10:31;20.13;;;2.37;;
11548;SDS011;61444;59.472;18.306;2023-03-21T00:12:49;10.70;;;2.30;;
11548;SDS011;61444;59.472;18.306;2023-03-21T00:15:04;34.87;;;3.70;;
11548;SDS011;61444;59.472;18.306;2023-03-21T00:17:14;26.97;;;3.20;;
11548;SDS011;61444;59.472;18.306;2023-03-21T00:19:23;29.43;;;3.30;;
11548;SDS011;61444;59.472;18.306;2023-03-21T00:21:36;17.70;;;2.80;;
11548;SDS011;61444;59.472;18.306;2023-03-21T00:24:08;18.10;;;2.70;;
11548;SDS011;61444;59.472;18.306;2023-03-21T00:26:17;54.70;;;4.13;;
11548;SDS011;61444;59.472;18.306;2023-03-21T00:28:27;25.07;;;3.47;;
11548;SDS011;61444;59.472;18.306;2023-03-21T00:30:38;55.23;;;4.03;;
11548;SDS011;61444;59.472;18.306;2023-03-21T00:32:48;26.27;;;3.33;;
11548;SDS011;61444;59.472;18.306;2023-03-21T00:35:02;30.33;;;3.60;;
11548;SDS011;61444;59.472;18.306;2023-03-21T00:37:32;18.43;;;2.53;;
11548;SDS011;61444;59.472;18.306;2023-03-21T00:39:42;18.73;;;3.40;;
11548;SDS011;61444;59.472;18.306;2023-03-21T00:41:54;13.60;;;2.57;;
11548;SDS011;61444;59.472;18.306;2023-03-21T00:44:03;6.43;;;2.17;;
11548;SDS011;61444;59.472;18.306;2023-03-21T00:46:12;8.97;;;2.77;;
11548;SDS011;61444;59.472;18.306;2023-03-21T00:48:22;34.13;;;3.80;;
11548;SDS011;61444;59.472;18.306;2023-03-21T00:50:31;30.00;;;4.23;;
11548;SDS011;61444;59.472;18.306;2023-03-21T00:52:41;35.83;;;3.93;;
11548;SDS011;61444;59.472;18.306;2023-03-21T00:54:50;31.33;;;4.30;;
11548;SDS011;61444;59.472;18.306;2023-03-21T00:56:59;26.83;;;3.43;;
11548;SDS011;61444;59.472;18.306;2023-03-21T00:59:08;57.20;;;5.00;;
11548;SDS011;61444;59.472;18.306;2023-03-21T01:01:17;35.13;;;4.17;;
11548;SDS011;61444;59.472;18.306;2023-03-21T01:03:26;69.40;;;6.53;;
11548;SDS011;61444;59.472;18.306;2023-03-21T01:05:36;28.00;;;5.13;;
11548;SDS011;61444;59.472;18.306;2023-03-21T01:08:04;31.67;;;4.00;;
11548;SDS011;61444;59.472;18.306;2023-03-21T01:10:32;41.27;;;4.00;;
11548;SDS011;61444;59.472;18.306;2023-03-21T01:12:40;23.10;;;3.43;;
11548;SDS011;61444;59.472;18.306;2023-03-21T01:14:49;28.57;;;3.73;;
11548;SDS011;61444;59.472;18.306;2023-03-21T01:16:59;15.20;;;2.50;;
11548;SDS011;61444;59.472;18.306;2023-03-21T01:19:09;19.57;;;2.43;;
11548;SDS011;61444;59.472;18.306;2023-03-21T01:21:31;16.33;;;2.53;;
11548;SDS011;61444;59.472;18.306;2023-03-21T01:23:43;8.00;;;1.83;;
11548;SDS011;61444;59.472;18.306;2023-03-21T01:25:51;18.60;;;2.73;;
11548;SDS011;61444;59.472;18.306;2023-03-21T01:28:01;36.07;;;3.20;;
11548;SDS011;61444;59.472;18.306;2023-03-21T01:30:10;42.13;;;4.00;;
11548;SDS011;61444;59.472;18.306;2023-03-21T01:32:29;20.13;;;2.87;;
11548;SDS011;61444;59.472;18.306;2023-03-21T01:34:38;17.20;;;2.43;;
11548;SDS011;61444;59.472;18.306;2023-03-21T01:36:47;24.80;;;2.00;;
11548;SDS011;61444;59.472;18.306;2023-03-21T01:38:58;24.07;;;3.17;;
11548;SDS011;61444;59.472;18.306;2023-03-21T01:41:08;34.67;;;3.37;;
11548;SDS011;61444;59.472;18.306;2023-03-21T01:43:26;97.30;;;7.40;;
11548;SDS011;61444;59.472;18.306;2023-03-21T01:48:02;56.10;;;3.93;;
11548;SDS011;61444;59.472;18.306;2023-03-21T01:50:11;34.53;;;4.20;;
11548;SDS011;61444;59.472;18.306;2023-03-21T01:52:21;25.63;;;3.23;;
11548;SDS011;61444;59.472;18.306;2023-03-21T01:54:44;37.00;;;3.47;;
11548;SDS011;61444;59.472;18.306;2023-03-21T01:56:55;34.30;;;3.43;;
11548;SDS011;61444;59.472;18.306;2023-03-21T01:59:06;18.30;;;2.77;;
11548;SDS011;61444;59.472;18.306;2023-03-21T02:01:16;26.33;;;3.10;;
11548;SDS011;61444;59.472;18.306;2023-03-21T02:03:28;37.20;;;3.37;;
11548;SDS011;61444;59.472;18.306;2023-03-21T02:05:51;16.07;;;2.33;;
11548;SDS011;61444;59.472;18.306;2023-03-21T02:08:01;16.70;;;2.30;;
11548;SDS011;61444;59.472;18.306;2023-03-21T02:10:11;19.17;;;2.00;;
11548;SDS011;61444;59.472;18.306;2023-03-21T02:12:21;14.93;;;2.90;;
11548;SDS011;61444;59.472;18.306;2023-03-21T02:14:30;43.30;;;4.43;;
11548;SDS011;61444;59.472;18.306;2023-03-21T02:16:44;30.07;;;4.37;;
11548;SDS011;61444;59.472;18.306;2023-03-21T02:18:57;41.37;;;3.73;;
11548;SDS011;61444;59.472;18.306;2023-03-21T02:21:15;33.77;;;2.70;;
11548;SDS011;61444;59.472;18.306;2023-03-21T02:23:33;62.97;;;5.20;;
11548;SDS011;61444;59.472;18.306;2023-03-21T02:28:48;22.13;;;2.67;;
11548;SDS011;61444;59.472;18.306;2023-03-21T02:31:10;46.50;;;3.53;;
11548;SDS011;61444;59.472;18.306;2023-03-21T02:36:16;25.87;;;2.67;;
11548;SDS011;61444;59.472;18.306;2023-03-21T02:38:44;13.37;;;2.87;;
11548;SDS011;61444;59.472;18.306;2023-03-21T02:41:02;55.63;;;4.63;;
11548;SDS011;61444;59.472;18.306;2023-03-21T02:43:26;21.73;;;3.73;;
11548;SDS011;61444;59.472;18.306;2023-03-21T02:45:41;44.00;;;4.27;;
11548;SDS011;61444;59.472;18.306;2023-03-21T02:47:55;33.80;;;3.40;;
11548;SDS011;61444;59.472;18.306;2023-03-21T02:50:10;44.43;;;3.77;;
11548;SDS011;61444;59.472;18.306;2023-03-21T02:52:26;53.03;;;4.40;;
11548;SDS011;61444;59.472;18.306;2023-03-21T02:54:46;85.70;;;4.97;;
11548;SDS011;61444;59.472;18.306;2023-03-21T02:56:57;53.13;;;5.17;;
11548;SDS011;61444;59.472;18.306;2023-03-21T02:59:09;70.40;;;5.90;;
11548;SDS011;61444;59.472;18.306;2023-03-21T03:01:18;39.73;;;4.53;;
11548;SDS011;61444;59.472;18.306;2023-03-21T03:03:26;25.57;;;3.17;;
11548;SDS011;61444;59.472;18.306;2023-03-21T03:05:41;19.70;;;2.67;;
11548;SDS011;61444;59.472;18.306;2023-03-21T03:07:57;20.93;;;2.87;;
11548;SDS011;61444;59.472;18.306;2023-03-21T03:10:18;17.03;;;2.00;;
11548;SDS011;61444;59.472;18.306;2023-03-21T03:12:36;16.37;;;3.10;;
11548;SDS011;61444;59.472;18.306;2023-03-21T03:14:56;33.80;;;3.67;;
11548;SDS011;61444;59.472;18.306;2023-03-21T03:17:23;17.73;;;2.57;;
11548;SDS011;61444;59.472;18.306;2023-03-21T03:19:43;13.80;;;2.40;;
11548;SDS011;61444;59.472;18.306;2023-03-21T03:22:02;14.10;;;2.50;;
11548;SDS011;61444;59.472;18.306;2023-03-21T03:24:16;45.53;;;3.53;;
11548;SDS011;61444;59.472;18.306;2023-03-21T03:26:34;16.13;;;2.57;;
11548;SDS011;61444;59.472;18.306;2023-03-21T03:28:47;24.37;;;2.93;;
11548;SDS011;61444;59.472;18.306;2023-03-21T03:30:59;22.53;;;2.13;;
11548;SDS011;61444;59.472;18.306;2023-03-21T03:33:15;10.70;;;2.40;;
11548;SDS011;61444;59.472;18.306;2023-03-21T03:35:28;68.90;;;4.83;;
11548;SDS011;61444;59.472;18.306;2023-03-21T03:37:37;30.13;;;3.40;;
11548;SDS011;61444;59.472;18.306;2023-03-21T03:39:48;39.40;;;3.47;;
11548;SDS011;61444;59.472;18.306;2023-03-21T03:42:02;16.43;;;2.20;;
11548;SDS011;61444;59.472;18.306;2023-03-21T03:44:32;7.80;;;1.97;;
11548;SDS011;61444;59.472;18.306;2023-03-21T03:46:43;36.13;;;4.73;;
11548;SDS011;61444;59.472;18.306;2023-03-21T03:48:54;24.33;;;2.87;;
11548;SDS011;61444;59.472;18.306;2023-03-21T03:51:05;31.80;;;3.43;;
11548;SDS011;61444;59.472;18.306;2023-03-21T03:53:16;27.37;;;2.80;;
11548;SDS011;61444;59.472;18.306;2023-03-21T03:55:27;26.27;;;4.20;;
11548;SDS011;61444;59.472;18.306;2023-03-21T03:57:41;27.73;;;3.53;;
11548;SDS011;61444;59.472;18.306;2023-03-21T03:59:51;19.73;;;3.00;;
11548;SDS011;61444;59.472;18.306;2023-03-21T04:02:00;17.00;;;3.70;;
11548;SDS011;61444;59.472;18.306;2023-03-21T04:04:09;16.93;;;3.10;;
11548;SDS011;61444;59.472;18.306;2023-03-21T04:06:19;27.23;;;3.13;;
11548;SDS011;61444;59.472;18.306;2023-03-21T04:08:27;28.63;;;2.60;;
11548;SDS011;61444;59.472;18.306;2023-03-21T04:10:36;25.70;;;3.83;;
11548;SDS011;61444;59.472;18.306;2023-03-21T04:12:47;38.70;;;3.33;;
11548;SDS011;61444;59.472;18.306;2023-03-21T04:14:56;44.90;;;3.83;;
11548;SDS011;61444;59.472;18.306;2023-03-21T04:17:15;42.10;;;2.90;;
11548;SDS011;61444;59.472;18.306;2023-03-21T04:19:24;15.70;;;3.03;;
11548;SDS011;61444;59.472;18.306;2023-03-21T04:21:34;27.83;;;3.70;;
11548;SDS011;61444;59.472;18.306;2023-03-21T04:23:43;42.97;;;3.70;;
11548;SDS011;61444;59.472;18.306;2023-03-21T04:25:52;29.00;;;3.63;;
11548;SDS011;61444;59.472;18.306;2023-03-21T04:28:04;51.47;;;5.67;;
11548;SDS011;61444;59.472;18.306;2023-03-21T04:30:14;60.00;;;5.03;;
11548;SDS011;61444;59.472;18.306;2023-03-21T04:32:25;37.43;;;4.13;;
11548;SDS011;61444;59.472;18.306;2023-03-21T04:34:33;47.40;;;4.30;;
11548;SDS011;61444;59.472;18.306;2023-03-21T04:36:45;77.77;;;6.83;;
11548;SDS011;61444;59.472;18.306;2023-03-21T04:38:55;47.20;;;3.93;;
11548;SDS011;61444;59.472;18.306;2023-03-21T04:41:06;54.23;;;5.13;;
11548;SDS011;61444;59.472;18.306;2023-03-21T04:43:16;83.93;;;6.60;;
11548;SDS011;61444;59.472;18.306;2023-03-21T04:45:25;31.70;;;3.30;;
11548;SDS011;61444;59.472;18.306;2023-03-21T04:47:34;69.57;;;5.67;;
11548;SDS011;61444;59.472;18.306;2023-03-21T04:49:42;27.97;;;3.07;;
11548;SDS011;61444;59.472;18.306;2023-03-21T04:51:53;48.23;;;3.77;;
11548;SDS011;61444;59.472;18.306;2023-03-21T04:54:02;59.43;;;5.93;;
11548;SDS011;61444;59.472;18.306;2023-03-21T04:56:11;46.73;;;5.10;;
11548;SDS011;61444;59.472;18.306;2023-03-21T04:58:21;39.17;;;3.83;;
11548;SDS011;61444;59.472;18.306;2023-03-21T05:00:30;50.63;;;4.17;;
11548;SDS011;61444;59.472;18.306;2023-03-21T05:02:43;61.70;;;5.47;;
11548;SDS011;61444;59.472;18.306;2023-03-21T05:04:52;83.00;;;7.10;;
11548;SDS011;61444;59.472;18.306;2023-03-21T05:07:02;38.17;;;5.80;;
11548;SDS011;61444;59.472;18.306;2023-03-21T05:09:12;24.00;;;3.97;;
11548;SDS011;61444;59.472;18.306;2023-03-21T05:11:20;29.03;;;3.97;;
11548;SDS011;61444;59.472;18.306;2023-03-21T05:13:31;40.47;;;5.73;;
11548;SDS011;61444;59.472;18.306;2023-03-21T05:15:39;52.77;;;4.50;;
11548;SDS011;61444;59.472;18.306;2023-03-21T05:17:48;46.33;;;4.10;;
11548;SDS011;61444;59.472;18.306;2023-03-21T05:19:56;25.07;;;3.13;;
11548;SDS011;61444;59.472;18.306;2023-03-21T05:22:06;37.47;;;5.47;;
11548;SDS011;61444;59.472;18.306;2023-03-21T05:24:17;44.27;;;4.47;;
11548;SDS011;61444;59.472;18.306;2023-03-21T05:26:28;62.73;;;5.00;;
11548;SDS011;61444;59.472;18.306;2023-03-21T05:28:38;39.17;;;4.17;;
11548;SDS011;61444;59.472;18.306;2023-03-21T05:30:47;11.87;;;2.70;;
11548;SDS011;61444;59.472;18.306;2023-03-21T05:32:56;38.60;;;4.60;;
11548;SDS011;61444;59.472;18.306;2023-03-21T05:35:05;32.00;;;3.90;;
11548;SDS011;61444;59.472;18.306;2023-03-21T05:37:13;21.43;;;2.80;;
11548;SDS011;61444;59.472;18.306;2023-03-21T05:39:22;49.60;;;4.73;;
11548;SDS011;61444;59.472;18.306;2023-03-21T05:41:31;24.03;;;3.63;;
11548;SDS011;61444;59.472;18.306;2023-03-21T05:43:41;29.57;;;3.37;;
11548;SDS011;61444;59.472;18.306;2023-03-21T05:45:50;24.03;;;4.43;;
11548;SDS011;61444;59.472;18.306;2023-03-21T05:47:58;23.30;;;3.27;;
11548;SDS011;61444;59.472;18.306;2023-03-21T05:50:08;11.87;;;2.70;;
11548;SDS011;61444;59.472;18.306;2023-03-21T05:52:18;28.63;;;2.77;;
11548;SDS011;61444;59.472;18.306;2023-03-21T05:54:28;12.33;;;3.20;;
11548;SDS011;61444;59.472;18.306;2023-03-21T05:56:36;33.67;;;4.03;;
11548;SDS011;61444;59.472;18.306;2023-03-21T05:58:47;16.37;;;3.23;;
11548;SDS011;61444;59.472;18.306;2023-03-21T06:00:56;22.53;;;3.47;;
11548;SDS011;61444;59.472;18.306;2023-03-21T06:03:04;24.63;;;3.70;;
11548;SDS011;61444;59.472;18.306;2023-03-21T06:05:13;20.83;;;3.87;;
11548;SDS011;61444;59.472;18.306;2023-03-21T06:07:21;27.73;;;4.37;;
11548;SDS011;61444;59.472;18.306;2023-03-21T06:09:30;23.40;;;4.70;;
11548;SDS011;61444;59.472;18.306;2023-03-21T06:11:39;33.00;;;4.90;;
11548;SDS011;61444;59.472;18.306;2023-03-21T06:13:56;59.53;;;4.97;;
11548;SDS011;61444;59.472;18.306;2023-03-21T06:16:04;54.23;;;5.50;;
11548;SDS011;61444;59.472;18.306;2023-03-21T06:18:13;50.00;;;5.33;;
11548;SDS011;61444;59.472;18.306;2023-03-21T06:20:22;46.23;;;4.07;;
11548;SDS011;61444;59.472;18.306;2023-03-21T06:22:31;27.03;;;4.20;;
11548;SDS011;61444;59.472;18.306;2023-03-21T06:24:40;54.70;;;7.13;;
11548;SDS011;61444;59.472;18.306;2023-03-21T06:26:49;31.47;;;4.20;;
11548;SDS011;61444;59.472;18.306;2023-03-21T06:29:00;41.70;;;7.07;;
11548;SDS011;61444;59.472;18.306;2023-03-21T06:31:08;40.27;;;6.30;;
11548;SDS011;61444;59.472;18.306;2023-03-21T06:33:18;45.93;;;5.00;;
11548;SDS011;61444;59.472;18.306;2023-03-21T06:35:26;24.77;;;3.67;;
11548;SDS011;61444;59.472;18.306;2023-03-21T06:37:35;17.63;;;2.80;;
11548;SDS011;61444;59.472;18.306;2023-03-21T06:39:44;20.83;;;3.43;;
11548;SDS011;61444;59.472;18.306;2023-03-21T06:41:53;33.27;;;3.83;;
11548;SDS011;61444;59.472;18.306;2023-03-21T06:44:04;62.90;;;4.93;;
11548;SDS011;61444;59.472;18.306;2023-03-21T06:46:13;52.10;;;5.00;;
11548;SDS011;61444;59.472;18.306;2023-03-21T06:48:22;14.40;;;4.20;;
11548;SDS011;61444;59.472;18.306;2023-03-21T06:50:31;57.70;;;5.53;;
11548;SDS011;61444;59.472;18.306;2023-03-21T06:52:40;47.97;;;4.47;;
11548;SDS011;61444;59.472;18.306;2023-03-21T06:54:49;32.07;;;4.17;;
11548;SDS011;61444;59.472;18.306;2023-03-21T06:56:57;55.53;;;5.60;;
11548;SDS011;61444;59.472;18.306;2023-03-21T06:59:08;38.37;;;5.20;;
11548;SDS011;61444;59.472;18.306;2023-03-21T07:01:17;50.37;;;5.10;;
11548;SDS011;61444;59.472;18.306;2023-03-21T07:03:26;31.77;;;5.63;;
11548;SDS011;61444;59.472;18.306;2023-03-21T07:05:35;89.80;;;9.03;;
11548;SDS011;61444;59.472;18.306;2023-03-21T07:07:45;115.80;;;12.77;;
11548;SDS011;61444;59.472;18.306;2023-03-21T07:09:54;83.53;;;9.27;;
11548;SDS011;61444;59.472;18.306;2023-03-21T07:12:03;67.63;;;8.53;;
11548;SDS011;61444;59.472;18.306;2023-03-21T07:14:13;51.53;;;5.87;;
11548;SDS011;61444;59.472;18.306;2023-03-21T07:16:22;39.93;;;4.10;;
11548;SDS011;61444;59.472;18.306;2023-03-21T07:18:32;66.73;;;6.03;;
11548;SDS011;61444;59.472;18.306;2023-03-21T07:20:41;76.03;;;6.73;;
11548;SDS011;61444;59.472;18.306;2023-03-21T07:22:56;22.50;;;3.53;;
11548;SDS011;61444;59.472;18.306;2023-03-21T07:25:06;51.83;;;4.93;;
11548;SDS011;61444;59.472;18.306;2023-03-21T07:27:16;47.03;;;4.57;;
11548;SDS011;61444;59.472;18.306;2023-03-21T07:29:28;20.87;;;2.53;;
11548;SDS011;61444;59.472;18.306;2023-03-21T07:31:37;29.33;;;3.60;;
11548;SDS011;61444;59.472;18.306;2023-03-21T07:33:46;34.47;;;4.23;;
11548;SDS011;61444;59.472;18.306;2023-03-21T07:35:55;11.50;;;2.33;;
11548;SDS011;61444;59.472;18.306;2023-03-21T07:38:04;23.40;;;4.17;;
11548;SDS011;61444;59.472;18.306;2023-03-21T07:40:13;39.97;;;4.93;;
11548;SDS011;61444;59.472;18.306;2023-03-21T07:42:22;17.80;;;4.07;;
11548;SDS011;61444;59.472;18.306;2023-03-21T07:44:32;17.40;;;3.03;;
11548;SDS011;61444;59.472;18.306;2023-03-21T07:46:41;16.87;;;3.50;;
11548;SDS011;61444;59.472;18.306;2023-03-21T07:48:51;21.47;;;3.97;;
11548;SDS011;61444;59.472;18.306;2023-03-21T07:51:00;34.07;;;5.07;;
11548;SDS011;61444;59.472;18.306;2023-03-21T07:53:09;19.47;;;3.33;;
11548;SDS011;61444;59.472;18.306;2023-03-21T07:55:18;23.53;;;3.80;;
11548;SDS011;61444;59.472;18.306;2023-03-21T07:57:27;12.03;;;3.30;;
11548;SDS011;61444;59.472;18.306;2023-03-21T07:59:38;26.07;;;3.50;;
11548;SDS011;61444;59.472;18.306;2023-03-21T08:01:47;16.23;;;3.80;;
11548;SDS011;61444;59.472;18.306;2023-03-21T08:03:55;18.50;;;3.40;;
11548;SDS011;61444;59.472;18.306;2023-03-21T08:06:04;10.03;;;3.60;;
11548;SDS011;61444;59.472;18.306;2023-03-21T08:08:13;17.17;;;3.90;;
11548;SDS011;61444;59.472;18.306;2023-03-21T08:10:22;6.27;;;3.53;;
11548;SDS011;61444;59.472;18.306;2023-03-21T08:12:31;10.43;;;3.90;;
11548;SDS011;61444;59.472;18.306;2023-03-21T08:14:41;31.33;;;4.97;;
11548;SDS011;61444;59.472;18.306;2023-03-21T08:16:50;9.70;;;3.87;;
11548;SDS011;61444;59.472;18.306;2023-03-21T08:19:00;5.03;;;3.40;;
11548;SDS011;61444;59.472;18.306;2023-03-21T08:21:08;7.30;;;3.13;;
11548;SDS011;61444;59.472;18.306;2023-03-21T08:23:17;9.80;;;4.10;;
11548;SDS011;61444;59.472;18.306;2023-03-21T08:25:27;10.67;;;3.77;;
11548;SDS011;61444;59.472;18.306;2023-03-21T08:27:36;12.97;;;4.47;;
11548;SDS011;61444;59.472;18.306;2023-03-21T08:29:46;8.47;;;3.93;;
11548;SDS011;61444;59.472;18.306;2023-03-21T08:31:56;9.50;;;3.73;;
11548;SDS011;61444;59.472;18.306;2023-03-21T08:34:05;11.53;;;3.90;;
11548;SDS011;61444;59.472;18.306;2023-03-21T08:36:14;8.77;;;3.77;;
11548;SDS011;61444;59.472;18.306;2023-03-21T08:38:24;11.63;;;4.73;;
11548;SDS011;61444;59.472;18.306;2023-03-21T08:40:35;6.77;;;4.00;;
11548;SDS011;61444;59.472;18.306;2023-03-21T08:42:44;7.00;;;3.63;;
11548;SDS011;61444;59.472;18.306;2023-03-21T08:44:56;14.90;;;4.57;;
11548;SDS011;61444;59.472;18.306;2023-03-21T08:47:05;5.90;;;3.73;;
11548;SDS011;61444;59.472;18.306;2023-03-21T08:49:14;6.53;;;3.97;;
11548;SDS011;61444;59.472;18.306;2023-03-21T08:51:23;7.53;;;4.50;;
11548;SDS011;61444;59.472;18.306;2023-03-21T08:53:32;7.57;;;4.27;;
11548;SDS011;61444;59.472;18.306;2023-03-21T08:55:42;9.30;;;4.17;;
11548;SDS011;61444;59.472;18.306;2023-03-21T08:57:51;7.07;;;4.43;;
11548;SDS011;61444;59.472;18.306;2023-03-21T09:00:03;7.77;;;4.67;;
11548;SDS011;61444;59.472;18.306;2023-03-21T09:02:16;9.23;;;4.23;;
11548;SDS011;61444;59.472;18.306;2023-03-21T09:04:25;7.57;;;4.67;;
11548;SDS011;61444;59.472;18.306;2023-03-21T09:06:33;10.37;;;5.13;;
11548;SDS011;61444;59.472;18.306;2023-03-21T09:08:42;9.50;;;4.97;;
11548;SDS011;61444;59.472;18.306;2023-03-21T09:10:52;8.83;;;5.07;;
11548;SDS011;61444;59.472;18.306;2023-03-21T09:13:01;7.33;;;4.53;;
11548;SDS011;61444;59.472;18.306;2023-03-21T09:15:12;10.00;;;4.80;;
11548;SDS011;61444;59.472;18.306;2023-03-21T09:17:21;9.50;;;4.97;;
11548;SDS011;61444;59.472;18.306;2023-03-21T09:19:31;8.37;;;5.00;;
11548;SDS011;61444;59.472;18.306;2023-03-21T09:21:40;6.70;;;4.10;;
11548;SDS011;61444;59.472;18.306;2023-03-21T09:23:49;7.33;;;4.60;;
11548;SDS011;61444;59.472;18.306;2023-03-21T09:26:00;6.83;;;4.23;;
11548;SDS011;61444;59.472;18.306;2023-03-21T09:28:10;7.50;;;4.90;;
11548;SDS011;61444;59.472;18.306;2023-03-21T09:30:21;8.10;;;4.67;;
11548;SDS011;61444;59.472;18.306;2023-03-21T09:32:32;9.00;;;5.27;;
11548;SDS011;61444;59.472;18.306;2023-03-21T09:34:41;9.07;;;4.90;;
11548;SDS011;61444;59.472;18.306;2023-03-21T09:36:50;7.70;;;4.93;;
11548;SDS011;61444;59.472;18.306;2023-03-21T09:39:00;11.87;;;5.80;;
11548;SDS011;61444;59.472;18.306;2023-03-21T09:41:16;8.20;;;5.10;;
11548;SDS011;61444;59.472;18.306;2023-03-21T09:43:32;9.83;;;5.60;;
11548;SDS011;61444;59.472;18.306;2023-03-21T09:45:46;8.27;;;5.00;;
11548;SDS011;61444;59.472;18.306;2023-03-21T09:47:58;8.90;;;5.27;;
11548;SDS011;61444;59.472;18.306;2023-03-21T09:50:11;6.63;;;4.60;;
11548;SDS011;61444;59.472;18.306;2023-03-21T09:52:26;10.07;;;5.30;;
11548;SDS011;61444;59.472;18.306;2023-03-21T09:54:40;10.67;;;5.40;;
11548;SDS011;61444;59.472;18.306;2023-03-21T09:56:51;10.33;;;5.77;;
11548;SDS011;61444;59.472;18.306;2023-03-21T09:59:02;9.03;;;5.27;;
11548;SDS011;61444;59.472;18.306;2023-03-21T10:01:16;8.20;;;5.00;;
11548;SDS011;61444;59.472;18.306;2023-03-21T10:03:33;7.80;;;4.80;;
11548;SDS011;61444;59.472;18.306;2023-03-21T10:05:42;9.10;;;4.90;;
11548;SDS011;61444;59.472;18.306;2023-03-21T10:07:53;6.60;;;4.80;;
11548;SDS011;61444;59.472;18.306;2023-03-21T10:10:09;6.87;;;4.87;;
11548;SDS011;61444;59.472;18.306;2023-03-21T10:12:23;8.07;;;4.70;;
11548;SDS011;61444;59.472;18.306;2023-03-21T10:14:36;6.00;;;4.60;;
11548;SDS011;61444;59.472;18.306;2023-03-21T10:16:50;6.70;;;4.00;;
11548;SDS011;61444;59.472;18.306;2023-03-21T10:19:03;7.87;;;4.37;;
11548;SDS011;61444;59.472;18.306;2023-03-21T10:21:19;6.03;;;3.90;;
11548;SDS011;61444;59.472;18.306;2023-03-21T10:23:49;4.83;;;3.40;;
11548;SDS011;61444;59.472;18.306;2023-03-21T10:26:00;5.00;;;3.60;;
11548;SDS011;61444;59.472;18.306;2023-03-21T10:28:14;5.40;;;3.37;;
11548;SDS011;61444;59.472;18.306;2023-03-21T10:30:27;4.33;;;3.27;;
11548;SDS011;61444;59.472;18.306;2023-03-21T10:32:43;3.93;;;2.80;;
11548;SDS011;61444;59.472;18.306;2023-03-21T10:34:53;3.17;;;2.40;;
11548;SDS011;61444;59.472;18.306;2023-03-21T10:37:04;4.70;;;2.67;;
11548;SDS011;61444;59.472;18.306;2023-03-21T10:39:17;3.10;;;2.37;;
11548;SDS011;61444;59.472;18.306;2023-03-21T10:41:33;4.43;;;1.93;;
11548;SDS011;61444;59.472;18.306;2023-03-21T10:43:42;4.13;;;2.10;;
11548;SDS011;61444;59.472;18.306;2023-03-21T10:45:51;3.07;;;2.10;;
11548;SDS011;61444;59.472;18.306;2023-03-21T10:48:02;5.73;;;2.03;;
11548;SDS011;61444;59.472;18.306;2023-03-21T10:50:16;4.13;;;1.90;;
11548;SDS011;61444;59.472;18.306;2023-03-21T10:52:31;2.17;;;1.60;;
11548;SDS011;61444;59.472;18.306;2023-03-21T10:54:41;1.87;;;1.60;;
11548;SDS011;61444;59.472;18.306;2023-03-21T10:56:51;3.33;;;1.60;;
11548;SDS011;61444;59.472;18.306;2023-03-21T10:59:04;2.77;;;1.50;;
11548;SDS011;61444;59.472;18.306;2023-03-21T11:01:20;1.60;;;1.13;;
11548;SDS011;61444;59.472;18.306;2023-03-21T11:03:38;1.60;;;0.87;;
11548;SDS011;61444;59.472;18.306;2023-03-21T11:05:52;2.47;;;1.13;;
11548;SDS011;61444;59.472;18.306;2023-03-21T11:08:03;2.63;;;1.03;;
11548;SDS011;61444;59.472;18.306;2023-03-21T11:10:25;1.67;;;0.90;;
11548;SDS011;61444;59.472;18.306;2023-03-21T11:12:36;2.97;;;0.97;;
11548;SDS011;61444;59.472;18.306;2023-03-21T11:14:47;3.13;;;0.80;;
11548;SDS011;61444;59.472;18.306;2023-03-21T11:16:58;1.90;;;0.70;;
11548;SDS011;61444;59.472;18.306;2023-03-21T11:19:15;2.07;;;0.90;;
11548;SDS011;61444;59.472;18.306;2023-03-21T11:21:25;0.77;;;0.70;;
11548;SDS011;61444;59.472;18.306;2023-03-21T11:23:37;2.73;;;0.60;;
11548;SDS011;61444;59.472;18.306;2023-03-21T11:25:49;1.17;;;0.70;;
11548;SDS011;61444;59.472;18.306;2023-03-21T11:27:58;1.37;;;0.70;;
11548;SDS011;61444;59.472;18.306;2023-03-21T11:30:17;1.53;;;0.83;;
11548;SDS011;61444;59.472;18.306;2023-03-21T11:32:30;0.77;;;0.70;;
11548;SDS011;61444;59.472;18.306;2023-03-21T11:34:45;1.23;;;0.70;;
11548;SDS011;61444;59.472;18.306;2023-03-21T11:36:57;0.80;;;0.50;;
11548;SDS011;61444;59.472;18.306;2023-03-21T11:39:14;3.27;;;0.70;;
11548;SDS011;61444;59.472;18.306;2023-03-21T11:41:38;2.07;;;0.70;;
11548;SDS011;61444;59.472;18.306;2023-03-21T11:43:49;0.70;;;0.50;;
11548;SDS011;61444;59.472;18.306;2023-03-21T11:46:04;0.50;;;0.40;;
11548;SDS011;61444;59.472;18.306;2023-03-21T11:48:14;0.70;;;0.50;;
11548;SDS011;61444;59.472;18.306;2023-03-21T11:50:28;0.50;;;0.50;;
11548;SDS011;61444;59.472;18.306;2023-03-21T11:52:40;1.60;;;0.50;;
11548;SDS011;61444;59.472;18.306;2023-03-21T11:57:40;0.57;;;0.40;;
11548;SDS011;61444;59.472;18.306;2023-03-21T11:59:53;0.53;;;0.53;;
11548;SDS011;61444;59.472;18.306;2023-03-21T12:02:19;3.60;;;0.70;;
11548;SDS011;61444;59.472;18.306;2023-03-21T12:04:54;1.30;;;0.70;;
11548;SDS011;61444;59.472;18.306;2023-03-21T12:09:52;0.67;;;0.50;;
11548;SDS011;61444;59.472;18.306;2023-03-21T12:12:16;4.00;;;0.70;;
11548;SDS011;61444;59.472;18.306;2023-03-21T12:14:46;0.60;;;0.50;;
11548;SDS011;61444;59.472;18.306;2023-03-21T12:17:05;1.80;;;0.60;;
11548;SDS011;61444;59.472;18.306;2023-03-21T12:22:15;1.90;;;0.57;;
11548;SDS011;61444;59.472;18.306;2023-03-21T12:24:36;1.37;;;0.87;;
11548;SDS011;61444;59.472;18.306;2023-03-21T12:26:56;3.27;;;0.60;;
11548;SDS011;61444;59.472;18.306;2023-03-21T12:32:03;1.00;;;0.40;;
11548;SDS011;61444;59.472;18.306;2023-03-21T12:34:30;0.73;;;0.50;;
11548;SDS011;61444;59.472;18.306;2023-03-21T12:37:01;1.27;;;0.57;;
11548;SDS011;61444;59.472;18.306;2023-03-21T12:39:22;1.23;;;0.50;;
11548;SDS011;61444;59.472;18.306;2023-03-21T12:41:36;0.60;;;0.47;;
11548;SDS011;61444;59.472;18.306;2023-03-21T12:43:53;1.57;;;0.47;;
11548;SDS011;61444;59.472;18.306;2023-03-21T12:46:08;2.13;;;0.50;;
11548;SDS011;61444;59.472;18.306;2023-03-21T12:48:23;0.30;;;0.30;;
11548;SDS011;61444;59.472;18.306;2023-03-21T12:50:40;0.57;;;0.50;;
11548;SDS011;61444;59.472;18.306;2023-03-21T12:52:53;4.10;;;0.70;;
11548;SDS011;61444;59.472;18.306;2023-03-21T12:55:05;0.83;;;0.33;;
11548;SDS011;61444;59.472;18.306;2023-03-21T12:57:22;3.53;;;0.60;;
11548;SDS011;61444;59.472;18.306;2023-03-21T12:59:38;1.80;;;0.50;;
11548;SDS011;61444;59.472;18.306;2023-03-21T13:01:57;1.83;;;0.47;;
11548;SDS011;61444;59.472;18.306;2023-03-21T13:04:15;2.07;;;0.57;;
11548;SDS011;61444;59.472;18.306;2023-03-21T13:06:37;2.10;;;0.70;;
11548;SDS011;61444;59.472;18.306;2023-03-21T13:08:47;2.30;;;0.50;;
11548;SDS011;61444;59.472;18.306;2023-03-21T13:10:59;4.10;;;0.50;;
11548;SDS011;61444;59.472;18.306;2023-03-21T13:13:11;1.03;;;0.40;;
11548;SDS011;61444;59.472;18.306;2023-03-21T13:15:35;1.90;;;0.50;;
11548;SDS011;61444;59.472;18.306;2023-03-21T13:17:55;0.50;;;0.50;;